Time,TemperatureF,DewpointF,PressureIn,WindDirection,WindDirectionDegrees,WindSpeedMPH,WindSpeedGustMPH,Humidity,HourlyPrecipIn,Conditions,Clouds,dailyrainin,SoftwareType,DateUTC
2013-09-12 00:04:00,71.2,70.9,29.94,NNW,343,0.0,2.0,99,0.00,,,0.00,WSDL version 430,2013-09-12 05:04:00,
2013-09-12 00:09:00,71.2,70.9,29.94,WNW,300,0.0,2.0,99,0.00,,,0.00,WSDL version 430,2013-09-12 05:09:00,
2013-09-12 00:14:00,71.2,70.9,29.94,WNW,293,1.2,3.1,99,0.00,,,0.00,WSDL version 430,2013-09-12 05:14:00,
2013-09-12 00:19:00,71.2,70.9,29.93,West,270,0.6,3.1,99,0.00,,,0.00,WSDL version 430,2013-09-12 05:19:00,
2013-09-12 00:24:00,71.2,70.9,29.94,West,262,0.0,2.5,99,0.00,,,0.00,WSDL version 430,2013-09-12 05:24:00,
2013-09-12 00:29:00,71.1,70.8,29.94,NNW,328,0.0,0.0,99,0.00,,,0.00,WSDL version 430,2013-09-12 05:29:00,
2013-09-12 00:34:00,71.1,70.9,29.94,SSW,203,0.0,0.0,100,0.00,,,0.00,WSDL version 430,2013-09-12 05:34:00,
2013-09-12 00:39:00,71.1,71.1,29.94,WSW,248,0.0,0.0,100,0.00,,,0.00,WSDL version 430,2013-09-12 05:39:00,
2013-09-12 00:44:00,71.1,71.1,29.94,WSW,248,0.0,0.0,100,0.00,,,0.00,WSDL version 430,2013-09-12 05:44:00,
2013-09-12 00:49:00,71.1,71.1,29.94,West,270,0.0,0.0,100,0.00,,,0.00,WSDL version 430,2013-09-12 05:49:00,
2013-09-12 00:54:00,71.1,71.1,29.94,WSW,248,0.0,0.0,100,0.00,,,0.00,WSDL version 430,2013-09-12 05:54:00,
2013-09-12 00:59:00,71.1,71.1,29.94,SSW,203,0.9,2.5,100,0.00,,,0.00,WSDL version 430,2013-09-12 05:59:00,
2013-09-12 01:04:00,71.1,71.1,29.94,SSW,213,1.6,2.5,100,0.08,,,0.08,WSDL version 430,2013-09-12 06:04:00,
2013-09-12 01:09:00,71.1,71.1,29.94,West,270,1.1,2.9,100,0.08,,,0.08,WSDL version 430,2013-09-12 06:09:00,
2013-09-12 01:14:00,71.1,71.0,29.93,SW,220,0.0,2.9,100,0.12,,,0.12,WSDL version 430,2013-09-12 06:14:00,
2013-09-12 01:19:00,71.1,71.0,29.93,SSW,203,0.0,1.6,100,0.12,,,0.12,WSDL version 430,2013-09-12 06:19:00,
2013-09-12 01:24:00,71.1,71.0,29.93,SSW,203,0.0,1.6,100,0.12,,,0.12,WSDL version 430,2013-09-12 06:24:00,
2013-09-12 01:29:00,71.1,71.0,29.94,SSW,208,2.3,4.0,100,0.12,,,0.12,WSDL version 430,2013-09-12 06:29:00,
2013-09-12 01:53:00,70.9,70.9,29.95,NW,318,1.3,3.8,100,0.12,,,0.12,WSDL version 430,2013-09-12 06:53:00,
2013-09-12 01:58:00,70.9,70.9,29.95,West,276,1.1,3.8,100,0.12,,,0.12,WSDL version 430,2013-09-12 06:58:00,
2013-09-12 02:03:00,70.9,70.9,29.95,WNW,283,0.6,4.3,100,0.04,,,0.12,WSDL version 430,2013-09-12 07:03:00,
2013-09-12 02:08:00,70.9,70.9,29.95,SSW,195,3.9,5.4,100,0.04,,,0.12,WSDL version 430,2013-09-12 07:08:00,
2013-09-12 02:13:00,70.8,70.8,29.95,SSE,163,1.6,6.5,100,0.00,,,0.12,WSDL version 430,2013-09-12 07:13:00,
2013-09-12 02:18:00,70.6,70.6,29.95,South,174,3.4,6.5,100,0.00,,,0.12,WSDL version 430,2013-09-12 07:18:00,
2013-09-12 02:23:00,70.5,70.5,29.95,South,191,2.3,5.4,100,0.00,,,0.12,WSDL version 430,2013-09-12 07:23:00,
2013-09-12 02:28:00,70.5,70.5,29.95,South,173,3.4,5.6,100,0.00,,,0.12,WSDL version 430,2013-09-12 07:28:00,
2013-09-12 02:33:00,70.5,70.5,29.95,SSW,209,2.5,5.6,100,0.00,,,0.12,WSDL version 430,2013-09-12 07:33:00,
2013-09-12 02:38:00,70.5,70.5,29.94,SSW,205,2.8,5.6,100,0.00,,,0.12,WSDL version 430,2013-09-12 07:38:00,
2013-09-12 02:43:00,70.5,70.5,29.94,SSW,203,1.1,4.3,100,0.00,,,0.12,WSDL version 430,2013-09-12 07:43:00,
2013-09-12 02:48:00,70.5,70.5,29.94,SSW,200,2.2,3.8,100,0.00,,,0.12,WSDL version 430,2013-09-12 07:48:00,
2013-09-12 02:53:00,70.5,70.4,29.94,SW,225,0.6,3.1,100,0.00,,,0.12,WSDL version 430,2013-09-12 07:53:00,
2013-09-12 02:58:00,70.3,70.3,29.94,NNW,332,0.0,2.0,100,0.00,,,0.12,WSDL version 430,2013-09-12 07:58:00,
2013-09-12 03:03:00,70.3,70.3,29.94,NW,326,0.4,2.7,100,0.00,,,0.12,WSDL version 430,2013-09-12 08:03:00,
2013-09-12 03:08:00,70.3,70.3,29.94,NNW,340,0.7,2.7,100,0.00,,,0.12,WSDL version 430,2013-09-12 08:08:00,
2013-09-12 03:13:00,70.3,70.3,29.94,NW,325,0.0,2.0,100,0.00,,,0.12,WSDL version 430,2013-09-12 08:13:00,
2013-09-12 03:18:00,70.3,70.3,29.94,WNW,295,1.3,3.1,100,0.00,,,0.12,WSDL version 430,2013-09-12 08:18:00,
2013-09-12 03:23:00,70.3,70.3,29.94,NNW,328,0.5,3.4,100,0.00,,,0.12,WSDL version 430,2013-09-12 08:23:00,
2013-09-12 03:28:00,70.3,70.3,29.94,WSW,242,1.5,4.0,100,0.00,,,0.12,WSDL version 430,2013-09-12 08:28:00,
2013-09-12 03:33:00,70.3,70.3,29.94,North,11,0.1,4.0,100,0.00,,,0.12,WSDL version 430,2013-09-12 08:33:00,
2013-09-12 03:38:00,70.3,70.3,29.94,WNW,295,1.0,3.1,100,0.00,,,0.12,WSDL version 430,2013-09-12 08:38:00,
2013-09-12 03:43:00,70.3,70.3,29.94,NW,304,2.3,4.3,100,0.00,,,0.12,WSDL version 430,2013-09-12 08:43:00,
2013-09-12 03:48:00,70.3,70.3,29.94,WNW,298,2.4,4.3,100,0.00,,,0.12,WSDL version 430,2013-09-12 08:48:00,
2013-09-12 03:53:00,70.5,70.4,29.94,NW,312,2.5,4.9,100,0.00,,,0.12,WSDL version 430,2013-09-12 08:53:00,
2013-09-12 03:58:00,70.5,70.5,29.94,NNW,338,2.5,4.9,100,0.00,,,0.12,WSDL version 430,2013-09-12 08:58:00,
2013-09-12 04:03:00,70.5,70.5,29.93,North,3,1.7,5.4,100,0.00,,,0.12,WSDL version 430,2013-09-12 09:03:00,
2013-09-12 04:08:00,70.5,70.5,29.93,NNW,328,2.0,5.4,100,0.00,,,0.12,WSDL version 430,2013-09-12 09:08:00,
2013-09-12 04:13:00,70.5,70.5,29.94,NNW,345,0.0,4.9,100,0.00,,,0.12,WSDL version 430,2013-09-12 09:13:00,
2013-09-12 04:18:00,70.5,70.5,29.94,NW,323,2.1,4.0,100,0.00,,,0.12,WSDL version 430,2013-09-12 09:18:00,
2013-09-12 04:23:00,70.5,70.5,29.94,NNW,343,2.2,4.0,100,0.00,,,0.12,WSDL version 430,2013-09-12 09:23:00,
2013-09-12 04:28:00,70.5,70.5,29.94,NNW,338,1.4,3.4,100,0.00,,,0.12,WSDL version 430,2013-09-12 09:28:00,
2013-09-12 04:33:00,70.5,70.5,29.94,NNW,345,1.1,4.7,100,0.00,,,0.12,WSDL version 430,2013-09-12 09:33:00,
2013-09-12 04:38:00,70.5,70.5,29.94,WNW,287,0.0,4.7,100,0.00,,,0.12,WSDL version 430,2013-09-12 09:38:00,
2013-09-12 04:43:00,70.5,70.5,29.94,WNW,293,0.1,2.9,100,0.00,,,0.12,WSDL version 430,2013-09-12 09:43:00,
2013-09-12 04:48:00,70.5,70.5,29.94,WSW,250,0.9,2.2,100,0.00,,,0.12,WSDL version 430,2013-09-12 09:48:00,
2013-09-12 04:53:00,70.5,70.5,29.94,WNW,296,0.5,2.2,100,0.00,,,0.12,WSDL version 430,2013-09-12 09:53:00,
2013-09-12 04:58:00,70.5,70.5,29.94,WSW,251,0.5,2.2,100,0.00,,,0.12,WSDL version 430,2013-09-12 09:58:00,
2013-09-12 05:03:00,70.3,70.3,29.94,SW,225,0.0,2.2,100,0.00,,,0.12,WSDL version 430,2013-09-12 10:03:00,
2013-09-12 05:08:00,70.2,70.1,29.95,SW,217,1.2,2.5,100,0.00,,,0.12,WSDL version 430,2013-09-12 10:08:00,
2013-09-12 05:13:00,70.2,70.1,29.95,WNW,296,0.0,2.5,100,0.00,,,0.12,WSDL version 430,2013-09-12 10:13:00,
2013-09-12 05:18:00,70.2,70.1,29.95,West,263,0.5,2.2,100,0.00,,,0.12,WSDL version 430,2013-09-12 10:18:00,
2013-09-12 05:31:00,69.8,69.8,29.95,WNW,296,1.1,2.5,100,0.00,,,0.12,WSDL version 430,2013-09-12 10:31:00,
2013-09-12 05:36:00,69.8,69.8,29.96,SW,219,0.6,2.5,100,0.00,,,0.12,WSDL version 430,2013-09-12 10:36:00,
2013-09-12 05:46:00,69.6,69.6,29.96,West,280,0.5,2.2,100,0.00,,,0.12,WSDL version 430,2013-09-12 10:46:00,
2013-09-12 05:51:00,69.6,69.6,29.96,WNW,301,1.2,3.4,100,0.00,,,0.12,WSDL version 430,2013-09-12 10:51:00,
2013-09-12 05:56:00,69.6,69.6,29.96,WNW,295,0.1,3.4,100,0.00,,,0.12,WSDL version 430,2013-09-12 10:56:00,
2013-09-12 06:01:00,69.4,69.4,29.96,WNW,285,0.1,3.6,100,0.00,,,0.12,WSDL version 430,2013-09-12 11:01:00,
2013-09-12 06:06:00,69.4,69.4,29.96,West,281,0.6,3.6,100,0.00,,,0.12,WSDL version 430,2013-09-12 11:06:00,
2013-09-12 06:11:00,69.3,69.2,29.96,WNW,303,0.7,2.9,100,0.00,,,0.12,WSDL version 430,2013-09-12 11:11:00,
2013-09-12 06:16:00,69.1,69.1,29.96,West,270,0.6,2.9,100,0.00,,,0.12,WSDL version 430,2013-09-12 11:16:00,
2013-09-12 06:21:00,68.9,68.9,29.96,North,8,0.0,2.0,100,0.00,,,0.12,WSDL version 430,2013-09-12 11:21:00,
2013-09-12 06:26:00,68.9,68.9,29.96,WNW,293,0.0,1.6,100,0.00,,,0.12,WSDL version 430,2013-09-12 11:26:00,
2013-09-12 06:31:00,68.8,68.8,29.96,West,273,0.0,1.1,100,0.00,,,0.12,WSDL version 430,2013-09-12 11:31:00,
2013-09-12 06:36:00,68.7,68.7,29.96,West,267,0.0,1.1,100,0.00,,,0.12,WSDL version 430,2013-09-12 11:36:00,
2013-09-12 06:41:00,68.7,68.7,29.97,South,180,0.0,0.9,100,0.00,,,0.12,WSDL version 430,2013-09-12 11:41:00,
2013-09-12 07:39:00,68.5,68.5,29.97,SW,217,0.0,3.6,100,0.00,,,0.12,WSDL version 430,2013-09-12 12:39:00,
2013-09-12 07:44:00,68.5,68.5,29.97,SSE,168,1.2,2.0,100,0.00,,,0.12,WSDL version 430,2013-09-12 12:44:00,
2013-09-12 07:49:00,68.5,68.5,29.97,South,169,1.7,2.5,100,0.00,,,0.12,WSDL version 430,2013-09-12 12:49:00,
2013-09-12 07:54:00,68.5,68.5,29.98,SSW,203,2.3,3.4,100,0.00,,,0.12,WSDL version 430,2013-09-12 12:54:00,
2013-09-12 09:02:00,70.5,70.5,29.97,East,100,1.7,4.0,100,0.00,,,0.12,WSDL version 430,2013-09-12 14:02:00,
2013-09-12 09:07:00,70.5,70.5,29.97,West,262,0.4,4.9,100,0.00,,,0.12,WSDL version 430,2013-09-12 14:07:00,
2013-09-12 09:12:00,70.5,70.5,29.97,WSW,240,1.4,4.9,100,0.00,,,0.12,WSDL version 430,2013-09-12 14:12:00,
2013-09-12 09:27:00,70.9,70.9,29.97,West,278,1.7,4.9,100,0.00,,,0.12,WSDL version 430,2013-09-12 14:27:00,
2013-09-12 09:32:00,70.7,70.7,29.97,NW,312,2.3,4.7,100,0.00,,,0.12,WSDL version 430,2013-09-12 14:32:00,
2013-09-12 09:37:00,70.7,70.4,29.97,NW,323,1.6,4.7,99,0.00,,,0.12,WSDL version 430,2013-09-12 14:37:00,
2013-09-12 09:42:00,70.8,70.5,29.97,WNW,302,2.4,4.5,99,0.00,,,0.12,WSDL version 430,2013-09-12 14:42:00,
2013-09-12 09:47:00,71.0,70.7,29.97,NW,318,1.8,4.5,99,0.00,,,0.12,WSDL version 430,2013-09-12 14:47:00,
2013-09-12 09:52:00,71.1,70.8,29.97,NW,318,2.6,6.0,99,0.00,,,0.12,WSDL version 430,2013-09-12 14:52:00,
2013-09-12 10:04:00,72.1,70.3,29.97,NW,315,3.6,5.4,94,0.00,,,0.12,WSDL version 430,2013-09-12 15:04:00,
2013-09-12 10:09:00,72.5,70.0,29.97,NNW,330,3.2,5.6,92,0.00,,,0.12,WSDL version 430,2013-09-12 15:09:00,
2013-09-12 10:14:00,72.6,69.7,29.97,West,276,3.1,5.6,90,0.00,,,0.12,WSDL version 430,2013-09-12 15:14:00,
2013-09-12 10:19:00,73.0,69.3,29.97,NW,321,3.4,6.0,87,0.00,,,0.12,WSDL version 430,2013-09-12 15:19:00,
2013-09-12 10:24:00,73.4,68.9,29.97,NNW,329,3.1,6.0,85,0.00,,,0.12,WSDL version 430,2013-09-12 15:24:00,
2013-09-12 10:29:00,73.6,68.7,29.97,North,354,3.0,7.8,84,0.00,,,0.12,WSDL version 430,2013-09-12 15:29:00,
2013-09-12 10:34:00,73.8,68.7,29.97,NW,315,2.7,7.8,84,0.00,,,0.12,WSDL version 430,2013-09-12 15:34:00,
2013-09-12 10:39:00,74.1,68.8,29.97,NNE,31,2.4,5.6,83,0.00,,,0.12,WSDL version 430,2013-09-12 15:39:00,
2013-09-12 10:44:00,74.7,68.8,29.97,NW,318,1.9,4.7,82,0.00,,,0.12,WSDL version 430,2013-09-12 15:44:00,
2013-09-12 10:49:00,75.2,68.2,29.96,East,93,2.7,5.8,78,0.00,,,0.12,WSDL version 430,2013-09-12 15:49:00,
2013-09-12 10:54:00,75.5,68.1,29.97,WNW,293,2.6,5.8,78,0.00,,,0.12,WSDL version 430,2013-09-12 15:54:00,
2013-09-12 10:59:00,75.8,68.0,29.96,SSW,199,2.8,4.9,77,0.00,,,0.12,WSDL version 430,2013-09-12 15:59:00,
2013-09-12 11:04:00,76.2,67.5,29.96,NNW,348,4.5,6.5,73,0.00,,,0.12,WSDL version 430,2013-09-12 16:04:00,
2013-09-12 11:09:00,76.8,66.8,29.96,NNW,338,2.4,6.5,72,0.00,,,0.12,WSDL version 430,2013-09-12 16:09:00,
2013-09-12 11:14:00,77.3,66.7,29.96,NE,53,3.0,5.8,68,0.00,,,0.12,WSDL version 430,2013-09-12 16:14:00,
2013-09-12 11:19:00,77.6,65.7,29.96,NNW,329,3.1,7.6,66,0.00,,,0.12,WSDL version 430,2013-09-12 16:19:00,
2013-09-12 11:24:00,78.0,64.4,29.96,WNW,295,4.3,7.6,61,0.00,,,0.12,WSDL version 430,2013-09-12 16:24:00,
2013-09-12 11:29:00,78.2,63.3,29.96,West,262,4.1,7.8,59,0.00,,,0.12,WSDL version 430,2013-09-12 16:29:00,
2013-09-12 11:34:00,78.4,62.4,29.96,North,356,5.8,8.7,59,0.00,,,0.12,WSDL version 430,2013-09-12 16:34:00,
2013-09-12 11:39:00,78.5,64.1,29.96,WNW,302,4.4,8.7,61,0.00,,,0.12,WSDL version 430,2013-09-12 16:39:00,
2013-09-12 11:44:00,78.8,64.1,29.96,North,350,4.0,8.5,63,0.00,,,0.12,WSDL version 430,2013-09-12 16:44:00,
2013-09-12 11:49:00,79.1,63.6,29.96,NNW,341,4.3,8.5,58,0.00,,,0.12,WSDL version 430,2013-09-12 16:49:00,
2013-09-12 11:54:00,79.0,62.8,29.96,NNW,338,4.9,7.4,57,0.00,,,0.12,WSDL version 430,2013-09-12 16:54:00,
2013-09-12 11:59:00,79.0,64.1,29.96,WNW,293,4.0,7.4,61,0.00,,,0.12,WSDL version 430,2013-09-12 16:59:00,
2013-09-12 12:04:00,79.1,62.8,29.96,North,358,5.8,12.1,58,0.00,,,0.12,WSDL version 430,2013-09-12 17:04:00,
2013-09-12 12:09:00,79.1,61.9,29.96,NW,315,3.8,12.1,57,0.00,,,0.12,WSDL version 430,2013-09-12 17:09:00,
2013-09-12 12:14:00,79.1,62.1,29.96,North,3,6.4,9.4,55,0.00,,,0.12,WSDL version 430,2013-09-12 17:14:00,
2013-09-12 12:19:00,79.3,62.0,29.96,NNW,332,6.5,11.0,54,0.00,,,0.12,WSDL version 430,2013-09-12 17:19:00,
2013-09-12 12:24:00,79.3,60.0,29.96,North,351,5.0,11.0,49,0.00,,,0.12,WSDL version 430,2013-09-12 17:24:00,
2013-09-12 12:29:00,79.3,58.3,29.95,NNW,340,5.3,7.6,48,0.00,,,0.12,WSDL version 430,2013-09-12 17:29:00,
2013-09-12 12:34:00,79.3,57.1,29.96,North,354,5.5,9.4,48,0.00,,,0.12,WSDL version 430,2013-09-12 17:34:00,
2013-09-12 12:39:00,79.1,56.0,29.96,NNW,332,5.8,10.5,45,0.00,,,0.12,WSDL version 430,2013-09-12 17:39:00,
2013-09-12 12:44:00,79.2,55.6,29.96,North,354,9.9,14.3,44,0.00,,,0.12,WSDL version 430,2013-09-12 17:44:00,
2013-09-12 12:49:00,79.2,55.0,29.96,North,357,7.9,14.3,43,0.00,,,0.12,WSDL version 430,2013-09-12 17:49:00,
2013-09-12 12:54:00,79.1,55.5,29.96,NNW,328,4.3,14.1,45,0.00,,,0.12,WSDL version 430,2013-09-12 17:54:00,
2013-09-12 12:59:00,79.2,55.9,29.96,WNW,301,3.7,7.8,45,0.00,,,0.12,WSDL version 430,2013-09-12 17:59:00,
2013-09-12 13:04:00,79.2,54.6,29.96,North,355,4.6,8.1,42,0.00,,,0.12,WSDL version 430,2013-09-12 18:04:00,
2013-09-12 13:09:00,79.1,54.4,29.96,WNW,293,5.1,11.9,44,0.00,,,0.12,WSDL version 430,2013-09-12 18:09:00,
2013-09-12 13:14:00,79.0,54.2,29.96,NW,319,6.0,11.9,41,0.00,,,0.12,WSDL version 430,2013-09-12 18:14:00,
2013-09-12 13:19:00,78.8,53.7,29.96,NW,321,5.7,10.5,43,0.00,,,0.12,WSDL version 430,2013-09-12 18:19:00,
2013-09-12 13:24:00,78.8,54.1,29.96,NNW,332,6.6,10.5,43,0.00,,,0.12,WSDL version 430,2013-09-12 18:24:00,
2013-09-12 13:29:00,78.8,54.1,29.95,NNE,23,6.2,10.1,42,0.00,,,0.12,WSDL version 430,2013-09-12 18:29:00,
2013-09-12 13:34:00,78.8,54.9,29.95,NNW,345,5.7,10.7,44,0.00,,,0.12,WSDL version 430,2013-09-12 18:34:00,
2013-09-12 13:39:00,78.9,55.4,29.95,NNW,332,6.0,10.7,45,0.00,,,0.12,WSDL version 430,2013-09-12 18:39:00,
2013-09-12 13:44:00,78.9,54.3,29.95,NNW,347,6.8,9.4,43,0.00,,,0.12,WSDL version 430,2013-09-12 18:44:00,
2013-09-12 13:49:00,78.8,54.5,29.95,North,11,8.3,13.0,44,0.00,,,0.12,WSDL version 430,2013-09-12 18:49:00,
2013-09-12 13:54:00,78.8,53.6,29.95,WNW,286,6.1,13.0,41,0.00,,,0.12,WSDL version 430,2013-09-12 18:54:00,
2013-09-12 13:59:00,78.6,52.9,29.95,NW,315,5.8,10.1,41,0.00,,,0.12,WSDL version 430,2013-09-12 18:59:00,
2013-09-12 14:04:00,78.5,53.0,29.95,North,360,5.4,10.1,42,0.00,,,0.12,WSDL version 430,2013-09-12 19:04:00,
2013-09-12 14:09:00,78.5,53.3,29.95,NNW,343,6.8,10.7,41,0.00,,,0.12,WSDL version 430,2013-09-12 19:09:00,
2013-09-12 14:14:00,78.6,53.0,29.95,North,354,8.3,11.0,39,0.00,,,0.12,WSDL version 430,2013-09-12 19:14:00,
2013-09-12 14:19:00,78.6,53.0,29.95,NNE,15,7.2,11.0,42,0.00,,,0.12,WSDL version 430,2013-09-12 19:19:00,
2013-09-12 14:24:00,78.6,53.0,29.95,North,356,7.3,14.8,42,0.00,,,0.12,WSDL version 430,2013-09-12 19:24:00,
2013-09-12 14:29:00,78.6,52.6,29.95,NW,325,5.3,14.8,40,0.00,,,0.12,WSDL version 430,2013-09-12 19:29:00,
2013-09-12 14:34:00,78.4,52.9,29.95,NE,45,7.1,10.7,42,0.00,,,0.12,WSDL version 430,2013-09-12 19:34:00,
2013-09-12 14:39:00,78.4,53.5,29.94,NNE,14,6.8,13.4,42,0.00,,,0.12,WSDL version 430,2013-09-12 19:39:00,
2013-09-12 14:44:00,78.4,53.5,29.94,North,353,8.0,13.4,42,0.00,,,0.12,WSDL version 430,2013-09-12 19:44:00,
2013-09-12 14:49:00,78.3,54.3,29.94,NNW,347,6.9,10.5,44,0.00,,,0.12,WSDL version 430,2013-09-12 19:49:00,
2013-09-12 14:54:00,78.3,54.0,29.94,North,354,7.6,11.2,44,0.00,,,0.12,WSDL version 430,2013-09-12 19:54:00,
2013-09-12 14:59:00,78.4,55.2,29.93,North,349,3.8,11.2,44,0.00,,,0.12,WSDL version 430,2013-09-12 19:59:00,
2013-09-12 15:04:00,78.6,53.1,29.93,NW,323,4.6,10.5,40,0.00,,,0.12,WSDL version 430,2013-09-12 20:04:00,
2013-09-12 15:09:00,78.6,51.7,29.93,NW,319,5.6,10.7,38,0.00,,,0.12,WSDL version 430,2013-09-12 20:09:00,
2013-09-12 15:14:00,78.3,50.7,29.94,North,357,7.0,10.7,38,0.00,,,0.12,WSDL version 430,2013-09-12 20:14:00,
2013-09-12 15:19:00,78.2,50.6,29.93,North,357,7.3,10.3,38,0.00,,,0.12,WSDL version 430,2013-09-12 20:19:00,
2013-09-12 15:24:00,78.3,51.7,29.93,North,350,5.7,12.5,40,0.00,,,0.12,WSDL version 430,2013-09-12 20:24:00,
2013-09-12 15:29:00,78.3,51.6,29.94,North,354,7.7,12.5,39,0.00,,,0.12,WSDL version 430,2013-09-12 20:29:00,
2013-09-12 15:34:00,78.1,50.9,29.94,North,354,7.0,12.1,38,0.00,,,0.12,WSDL version 430,2013-09-12 20:34:00,
2013-09-12 15:39:00,78.0,50.8,29.94,NNW,338,6.0,12.1,38,0.00,,,0.12,WSDL version 430,2013-09-12 20:39:00,
2013-09-12 15:44:00,78.1,50.2,29.94,NNE,13,6.3,11.4,38,0.00,,,0.12,WSDL version 430,2013-09-12 20:44:00,
2013-09-12 15:49:00,78.1,49.9,29.94,North,357,3.6,11.4,37,0.00,,,0.12,WSDL version 430,2013-09-12 20:49:00,
2013-09-12 15:54:00,77.9,49.6,29.94,North,350,6.5,14.8,37,0.00,,,0.12,WSDL version 430,2013-09-12 20:54:00,
2013-09-12 15:59:00,77.9,50.2,29.94,NNW,341,4.4,14.8,38,0.00,,,0.12,WSDL version 430,2013-09-12 20:59:00,
2013-09-12 16:04:00,77.9,49.6,29.94,NNW,335,6.5,10.5,37,0.00,,,0.12,WSDL version 430,2013-09-12 21:04:00,
2013-09-12 16:09:00,77.9,50.0,29.94,NNW,348,6.7,10.5,38,0.00,,,0.12,WSDL version 430,2013-09-12 21:09:00,
2013-09-12 16:14:00,77.8,50.4,29.94,North,9,8.3,10.5,38,0.00,,,0.12,WSDL version 430,2013-09-12 21:14:00,
2013-09-12 16:19:00,77.6,50.4,29.94,North,3,6.5,15.4,39,0.00,,,0.12,WSDL version 430,2013-09-12 21:19:00,
2013-09-12 16:24:00,77.6,50.5,29.94,North,352,8.7,15.4,39,0.00,,,0.12,WSDL version 430,2013-09-12 21:24:00,
2013-09-12 16:29:00,77.5,51.3,29.94,NNW,330,5.9,13.2,40,0.00,,,0.12,WSDL version 430,2013-09-12 21:29:00,
2013-09-12 16:34:00,77.4,51.2,29.94,NNW,345,6.5,13.2,40,0.00,,,0.12,WSDL version 430,2013-09-12 21:34:00,
2013-09-12 16:39:00,77.4,51.4,29.94,North,357,10.1,17.0,39,0.00,,,0.12,WSDL version 430,2013-09-12 21:39:00,
2013-09-12 16:44:00,77.2,49.8,29.94,North,357,8.1,17.0,39,0.00,,,0.12,WSDL version 430,2013-09-12 21:44:00,
2013-09-12 16:49:00,77.0,50.5,29.94,North,8,7.7,13.0,40,0.00,,,0.12,WSDL version 430,2013-09-12 21:49:00,
2013-09-12 16:54:00,76.9,51.2,29.94,North,357,7.7,12.8,41,0.00,,,0.12,WSDL version 430,2013-09-12 21:54:00,
2013-09-12 16:59:00,76.9,51.1,29.94,North,3,6.7,12.8,40,0.00,,,0.12,WSDL version 430,2013-09-12 21:59:00,
2013-09-12 17:04:00,76.7,50.6,29.94,North,357,6.3,11.0,40,0.00,,,0.12,WSDL version 430,2013-09-12 22:04:00,
2013-09-12 17:09:00,76.5,51.1,29.94,North,360,7.4,12.8,41,0.00,,,0.12,WSDL version 430,2013-09-12 22:09:00,
2013-09-12 17:14:00,76.4,51.0,29.94,NNE,16,6.5,12.8,41,0.00,,,0.12,WSDL version 430,2013-09-12 22:14:00,
2013-09-12 17:19:00,76.1,50.2,29.94,NNE,25,9.1,17.4,40,0.00,,,0.12,WSDL version 430,2013-09-12 22:19:00,
2013-09-12 17:24:00,75.9,50.3,29.94,North,360,6.8,17.4,41,0.00,,,0.12,WSDL version 430,2013-09-12 22:24:00,
2013-09-12 17:29:00,75.7,50.8,29.94,North,10,8.2,13.2,41,0.00,,,0.12,WSDL version 430,2013-09-12 22:29:00,
2013-09-12 17:34:00,75.6,50.2,29.95,North,356,9.5,13.2,41,0.00,,,0.12,WSDL version 430,2013-09-12 22:34:00,
2013-09-12 17:39:00,75.4,50.1,29.95,North,3,8.6,12.5,41,0.00,,,0.12,WSDL version 430,2013-09-12 22:39:00,
2013-09-12 17:44:00,75.2,49.4,29.95,North,6,8.6,12.5,40,0.00,,,0.12,WSDL version 430,2013-09-12 22:44:00,
2013-09-12 17:49:00,75.1,49.9,29.95,North,8,6.5,13.0,42,0.00,,,0.12,WSDL version 430,2013-09-12 22:49:00,
2013-09-12 17:54:00,75.0,50.4,29.95,North,10,7.6,13.0,42,0.00,,,0.12,WSDL version 430,2013-09-12 22:54:00,
2013-09-12 17:59:00,74.8,50.2,29.95,NNW,338,7.7,11.2,42,0.00,,,0.12,WSDL version 430,2013-09-12 22:59:00,
2013-09-12 18:04:00,74.7,50.1,29.95,NNW,341,6.2,11.2,42,0.00,,,0.12,WSDL version 430,2013-09-12 23:04:00,
2013-09-12 18:09:00,74.5,50.2,29.95,North,8,7.5,12.3,42,0.00,,,0.12,WSDL version 430,2013-09-12 23:09:00,
2013-09-12 18:14:00,74.3,49.9,29.96,NNE,16,7.5,12.3,43,0.00,,,0.12,WSDL version 430,2013-09-12 23:14:00,
2013-09-12 18:19:00,74.0,50.2,29.96,North,3,5.3,9.8,44,0.00,,,0.12,WSDL version 430,2013-09-12 23:19:00,
2013-09-12 18:24:00,73.8,50.6,29.96,North,3,6.3,8.5,44,0.00,,,0.12,WSDL version 430,2013-09-12 23:24:00,
2013-09-12 18:29:00,73.5,50.8,29.95,NNE,16,5.7,8.7,45,0.00,,,0.12,WSDL version 430,2013-09-12 23:29:00,
2013-09-12 18:34:00,73.2,51.2,29.96,NNE,14,5.0,8.7,46,0.00,,,0.12,WSDL version 430,2013-09-12 23:34:00,
2013-09-12 18:39:00,72.8,51.4,29.96,NNE,15,4.4,8.1,47,0.00,,,0.12,WSDL version 430,2013-09-12 23:39:00,
2013-09-12 18:44:00,72.5,51.1,29.96,NNE,13,4.6,8.1,47,0.00,,,0.12,WSDL version 430,2013-09-12 23:44:00,
2013-09-12 18:49:00,72.2,50.9,29.96,North,3,4.9,7.2,47,0.00,,,0.12,WSDL version 430,2013-09-12 23:49:00,
2013-09-12 18:54:00,71.7,50.8,29.96,NNE,17,3.9,7.2,48,0.00,,,0.12,WSDL version 430,2013-09-12 23:54:00,
2013-09-12 18:59:00,71.5,50.9,29.96,North,9,4.6,7.2,49,0.00,,,0.12,WSDL version 430,2013-09-12 23:59:00,
2013-09-12 19:04:00,71.1,51.0,29.96,North,357,4.9,7.6,49,0.00,,,0.12,WSDL version 430,2013-09-13 00:04:00,
2013-09-12 19:09:00,70.7,50.7,29.96,NNE,16,5.0,7.6,49,0.00,,,0.12,WSDL version 430,2013-09-13 00:09:00,
2013-09-12 19:14:00,70.4,50.5,29.97,North,6,5.8,7.4,50,0.00,,,0.12,WSDL version 430,2013-09-13 00:14:00,
2013-09-12 19:19:00,70.1,50.3,29.97,NNE,23,4.4,7.4,50,0.00,,,0.12,WSDL version 430,2013-09-13 00:19:00,
2013-09-12 19:24:00,69.8,50.3,29.97,North,8,5.1,7.4,50,0.00,,,0.12,WSDL version 430,2013-09-13 00:24:00,
2013-09-12 19:29:00,69.5,50.6,29.97,North,3,4.2,7.4,51,0.00,,,0.12,WSDL version 430,2013-09-13 00:29:00,
2013-09-12 19:34:00,69.2,50.4,29.97,North,11,3.6,6.3,51,0.00,,,0.12,WSDL version 430,2013-09-13 00:34:00,
2013-09-12 19:39:00,68.9,50.0,29.98,NNE,17,3.1,5.8,51,0.00,,,0.12,WSDL version 430,2013-09-13 00:39:00,
2013-09-12 19:44:00,68.5,50.2,29.98,North,10,2.7,5.6,52,0.00,,,0.12,WSDL version 430,2013-09-13 00:44:00,
2013-09-12 19:49:00,68.2,50.1,29.99,NNE,19,3.1,5.6,53,0.00,,,0.12,WSDL version 430,2013-09-13 00:49:00,
2013-09-12 19:54:00,67.8,50.3,29.99,North,360,3.2,5.8,54,0.00,,,0.12,WSDL version 430,2013-09-13 00:54:00,
2013-09-12 19:59:00,67.6,50.3,29.99,North,10,3.3,5.8,54,0.00,,,0.12,WSDL version 430,2013-09-13 00:59:00,
2013-09-12 20:04:00,67.3,50.6,29.99,North,3,4.7,6.0,55,0.00,,,0.12,WSDL version 430,2013-09-13 01:04:00,
2013-09-12 20:09:00,67.0,50.6,29.99,North,3,4.3,6.3,56,0.00,,,0.12,WSDL version 430,2013-09-13 01:09:00,
2013-09-12 20:14:00,66.8,51.0,29.99,North,357,3.4,6.3,57,0.00,,,0.12,WSDL version 430,2013-09-13 01:14:00,
2013-09-12 20:19:00,66.7,51.0,30.00,NNE,15,4.0,5.6,57,0.00,,,0.12,WSDL version 430,2013-09-13 01:19:00,
2013-09-12 20:24:00,66.5,51.3,30.00,NNE,20,4.9,6.5,58,0.00,,,0.12,WSDL version 430,2013-09-13 01:24:00,
2013-09-12 20:29:00,66.3,51.2,30.00,North,10,3.9,6.5,58,0.00,,,0.12,WSDL version 430,2013-09-13 01:29:00,
2013-09-12 20:34:00,66.1,51.2,30.01,North,5,3.7,6.0,59,0.00,,,0.12,WSDL version 430,2013-09-13 01:34:00,
2013-09-12 20:39:00,65.9,51.5,30.01,North,6,3.9,6.0,60,0.00,,,0.12,WSDL version 430,2013-09-13 01:39:00,
2013-09-12 20:44:00,65.6,51.4,30.01,NNE,27,3.1,5.4,60,0.00,,,0.12,WSDL version 430,2013-09-13 01:44:00,
2013-09-12 20:49:00,65.4,51.3,30.01,North,11,3.0,4.3,61,0.00,,,0.12,WSDL version 430,2013-09-13 01:49:00,
2013-09-12 20:54:00,65.1,51.4,30.01,North,360,2.8,5.6,61,0.00,,,0.12,WSDL version 430,2013-09-13 01:54:00,
2013-09-12 20:59:00,64.9,51.4,30.01,North,360,3.2,6.3,62,0.00,,,0.12,WSDL version 430,2013-09-13 01:59:00,
2013-09-12 21:04:00,64.6,51.7,30.01,NNE,25,3.9,6.3,63,0.00,,,0.12,WSDL version 430,2013-09-13 02:04:00,
2013-09-12 21:09:00,64.4,51.9,30.01,NNE,14,3.2,5.6,64,0.00,,,0.12,WSDL version 430,2013-09-13 02:09:00,
2013-09-12 21:14:00,64.1,52.2,30.01,NNE,30,4.1,5.8,65,0.00,,,0.12,WSDL version 430,2013-09-13 02:14:00,
2013-09-12 21:19:00,63.9,52.1,30.01,North,6,2.9,5.8,66,0.00,,,0.12,WSDL version 430,2013-09-13 02:19:00,
2013-09-12 21:24:00,63.6,52.0,30.02,NNE,13,3.5,5.4,66,0.00,,,0.12,WSDL version 430,2013-09-13 02:24:00,
2013-09-12 21:29:00,63.4,52.1,30.02,NNE,18,3.9,5.8,67,0.00,,,0.12,WSDL version 430,2013-09-13 02:29:00,
2013-09-12 21:34:00,63.1,52.1,30.02,North,353,3.1,5.8,68,0.00,,,0.12,WSDL version 430,2013-09-13 02:34:00,
2013-09-12 21:39:00,62.9,52.3,30.02,North,8,3.8,6.3,68,0.00,,,0.12,WSDL version 430,2013-09-13 02:39:00,
2013-09-12 21:44:00,62.7,52.1,30.02,North,6,4.2,6.3,68,0.00,,,0.12,WSDL version 430,2013-09-13 02:44:00,
2013-09-12 21:49:00,62.5,52.2,30.03,North,357,3.6,6.0,69,0.00,,,0.12,WSDL version 430,2013-09-13 02:49:00,
2013-09-12 21:54:00,62.3,52.3,30.03,North,10,3.8,6.0,70,0.00,,,0.12,WSDL version 430,2013-09-13 02:54:00,
2013-09-12 21:59:00,62.1,52.2,30.03,North,11,3.6,5.6,70,0.00,,,0.12,WSDL version 430,2013-09-13 02:59:00,
2013-09-12 22:04:00,61.9,52.2,30.03,North,3,4.0,6.3,71,0.00,,,0.12,WSDL version 430,2013-09-13 03:04:00,
2013-09-12 22:09:00,61.7,52.2,30.03,North,6,3.5,6.3,71,0.00,,,0.12,WSDL version 430,2013-09-13 03:09:00,
2013-09-12 22:14:00,61.5,52.1,30.03,North,3,3.4,5.6,72,0.00,,,0.12,WSDL version 430,2013-09-13 03:14:00,
2013-09-12 22:19:00,61.3,52.0,30.03,NNE,25,2.8,4.3,72,0.00,,,0.12,WSDL version 430,2013-09-13 03:19:00,
2013-09-12 22:24:00,61.2,52.1,30.03,North,360,1.7,4.3,72,0.00,,,0.12,WSDL version 430,2013-09-13 03:24:00,
2013-09-12 22:29:00,61.0,51.8,30.03,NNE,19,1.3,3.8,72,0.00,,,0.12,WSDL version 430,2013-09-13 03:29:00,
2013-09-12 22:34:00,60.8,51.7,30.03,North,354,2.6,3.8,72,0.00,,,0.12,WSDL version 430,2013-09-13 03:34:00,
2013-09-12 22:39:00,60.7,51.6,30.03,North,353,1.8,3.8,72,0.00,,,0.12,WSDL version 430,2013-09-13 03:39:00,
2013-09-12 22:44:00,60.6,51.9,30.03,North,6,0.6,2.9,73,0.00,,,0.12,WSDL version 430,2013-09-13 03:44:00,
2013-09-12 22:49:00,60.4,51.8,30.04,NW,315,0.0,2.7,73,0.00,,,0.12,WSDL version 430,2013-09-13 03:49:00,
2013-09-12 22:54:00,60.3,52.0,30.04,WSW,248,0.0,0.0,74,0.00,,,0.12,WSDL version 430,2013-09-13 03:54:00,
2013-09-12 22:59:00,60.1,51.7,30.04,NNW,338,0.0,0.0,74,0.00,,,0.12,WSDL version 430,2013-09-13 03:59:00,
2013-09-12 23:01:00,59.9,51.6,30.04,North,6,0.0,1.1,74,0.00,,,0.12,WSDL version 430,2013-09-13 04:01:00,
2013-09-12 23:02:00,59.9,51.6,30.04,North,10,0.0,1.3,74,0.00,,,0.12,WSDL version 430,2013-09-13 04:02:00,
2013-09-12 23:03:00,59.9,51.6,30.04,North,5,0.5,1.3,74,0.00,,,0.12,WSDL version 430,2013-09-13 04:03:00,
2013-09-12 23:07:00,59.8,51.5,30.04,North,6,0.0,1.3,74,0.00,,,0.12,WSDL version 430,2013-09-13 04:07:00,
2013-09-12 23:10:00,59.7,51.6,30.04,NNW,335,0.0,1.3,75,0.00,,,0.12,WSDL version 430,2013-09-13 04:10:00,
2013-09-12 23:14:00,59.6,51.7,30.04,NNW,338,0.0,0.0,75,0.00,,,0.12,WSDL version 430,2013-09-13 04:14:00,
2013-09-12 23:19:00,59.4,51.4,30.04,North,357,0.0,1.1,75,0.00,,,0.12,WSDL version 430,2013-09-13 04:19:00,
2013-09-12 23:24:00,59.4,51.5,30.04,North,360,0.0,1.1,76,0.00,,,0.12,WSDL version 430,2013-09-13 04:24:00,
2013-09-12 23:29:00,59.2,51.3,30.04,North,357,1.1,2.5,75,0.00,,,0.12,WSDL version 430,2013-09-13 04:29:00,
2013-09-12 23:34:00,58.9,51.2,30.04,North,349,0.7,2.5,76,0.00,,,0.12,WSDL version 430,2013-09-13 04:34:00,
2013-09-12 23:39:00,58.8,51.3,30.04,North,350,1.0,2.7,76,0.00,,,0.12,WSDL version 430,2013-09-13 04:39:00,
2013-09-12 23:44:00,58.8,51.3,30.03,North,360,0.0,2.7,76,0.00,,,0.12,WSDL version 430,2013-09-13 04:44:00,
2013-09-12 23:49:00,58.7,51.1,30.03,NNW,330,0.6,2.7,76,0.00,,,0.12,WSDL version 430,2013-09-13 04:49:00,
2013-09-12 23:54:00,58.6,51.3,30.03,North,349,0.1,2.7,77,0.00,,,0.12,WSDL version 430,2013-09-13 04:54:00,
2013-09-12 23:59:00,58.5,51.2,30.03,North,354,0.9,2.2,77,0.00,,,0.12,WSDL version 430,2013-09-13 04:59:00,